CheckWX is a tool to help pilots better visualize weather data.  It is not intended as a substitute for an official pre-flight weather briefing.

16:33:26 UTC

KAXN TAF
Chandler Field Airport
Alexandria, Minnesota, USA
KAXN 201123Z 2012/2112 VRB03KT P6SM FEW250 FM201800 14012G20KT P6SM OVC150 FM202100 13014G23KT P6SM VCSH SCT050 OVC100 FM210200 12013G21KT 6SM -RA BR SCT030 OVC070 FM210900 11011KT 6SM -RA BR OVC020

Oct-20@
12:00 UTC

Oct-20 @ 12:00 UTC

Oct-20@
18:00 UTC

Oct-20 @ 18:00 UTC

KAXN 201123Z 2012/2112 VRB03KT P6SM FEW250
Wind
  • Variable at 3 KTS
Cloud Levels
  • Few at 25,000' AGL

Oct-20@
18:00 UTC

Oct-20 @ 18:00 UTC

Oct-20@
21:00 UTC

Oct-20 @ 21:00 UTC

FM201800 14012G20KT P6SM OVC150

From

From Standard forecast or significant change

Wind
  • 140° at 12 KTS
  • {Gusting to 20 KTS
Cloud Levels
  • Overcast at 15,000' AGL

Oct-20@
21:00 UTC

Oct-20 @ 21:00 UTC

Oct-21@
02:00 UTC

Oct-21 @ 02:00 UTC

FM202100 13014G23KT P6SM VCSH SCT050 OVC100

From

From Standard forecast or significant change

Wind
  • 130° at 14 KTS
  • {Gusting to 23 KTS
Cloud Levels
  • Scattered at 5,000' AGL
  • Overcast at 10,000' AGL

Oct-21@
02:00 UTC

Oct-21 @ 02:00 UTC

Oct-21@
09:00 UTC

Oct-21 @ 09:00 UTC

FM210200 12013G21KT 6SM -RA BR SCT030 OVC070

From

From Standard forecast or significant change

Wind
  • 120° at 13 KTS
  • {Gusting to 21 KTS
Conditions
Light Rain, Mist
Cloud Levels
  • Scattered at 3,000' AGL
  • Overcast at 7,000' AGL

Oct-21@
09:00 UTC

Oct-21 @ 09:00 UTC

Oct-21@
12:00 UTC

Oct-21 @ 12:00 UTC

FM210900 11011KT 6SM -RA BR OVC020

From

From Standard forecast or significant change

Wind
  • 110° at 11 KTS
Conditions
Light Rain, Mist
Cloud Levels
  • Overcast at 2,000' AGL